createdAt,value
2017-10-02T00:02:21.888Z,13.60
2017-10-02T00:04:50.932Z,11.60
2017-10-02T00:07:19.251Z,10.23
2017-10-02T00:09:48.330Z,12.70
2017-10-02T00:12:17.524Z,13.10
2017-10-02T00:14:46.034Z,15.03
2017-10-02T00:17:15.088Z,13.20
2017-10-02T00:19:43.398Z,12.63
2017-10-02T00:22:11.712Z,13.80
2017-10-02T00:24:40.038Z,14.57
2017-10-02T00:27:08.356Z,14.20
2017-10-02T00:29:37.425Z,13.80
2017-10-02T00:32:06.524Z,15.67
2017-10-02T00:34:34.939Z,15.73
2017-10-02T00:37:03.998Z,15.47
2017-10-02T00:39:32.316Z,14.33
2017-10-02T00:42:01.378Z,16.03
2017-10-02T00:44:29.696Z,21.30
2017-10-02T00:46:58.762Z,14.97
2017-10-02T00:49:27.066Z,15.37
2017-10-02T00:51:56.140Z,14.77
2017-10-02T00:54:24.481Z,19.13
2017-10-02T00:56:52.780Z,15.40
2017-10-02T00:59:21.082Z,17.40
2017-10-02T01:01:49.374Z,16.70
2017-10-02T01:04:17.678Z,21.13
2017-10-02T01:06:46.749Z,18.20
2017-10-02T01:09:15.072Z,18.90
2017-10-02T01:11:43.407Z,20.50
2017-10-02T01:14:11.710Z,18.57
2017-10-02T01:16:40.805Z,22.17
2017-10-02T01:19:09.142Z,22.23
2017-10-02T01:21:37.551Z,24.13
2017-10-02T01:24:05.935Z,23.23
2017-10-02T01:26:34.256Z,26.13
2017-10-02T01:29:02.596Z,29.33
2017-10-02T01:31:30.899Z,29.40
2017-10-02T01:33:59.250Z,31.20
2017-10-02T01:36:27.578Z,32.20
2017-10-02T01:38:55.901Z,29.27
2017-10-02T01:41:24.216Z,30.90
2017-10-02T01:43:52.569Z,29.93
2017-10-02T01:46:20.898Z,29.47
2017-10-02T01:48:50.006Z,30.97
2017-10-02T01:51:18.322Z,33.67
2017-10-02T01:53:46.724Z,33.70
2017-10-02T01:56:15.023Z,32.30
2017-10-02T01:58:43.320Z,29.20
2017-10-02T02:01:12.448Z,32.93
2017-10-02T02:03:40.748Z,32.00
2017-10-02T02:06:09.066Z,29.10
2017-10-02T02:08:38.169Z,31.10
2017-10-02T02:11:06.544Z,30.43
2017-10-02T02:13:34.878Z,25.50
2017-10-02T02:16:03.182Z,27.00
2017-10-02T02:18:31.479Z,27.00
2017-10-02T02:20:59.877Z,24.13
2017-10-02T02:23:28.244Z,25.13
2017-10-02T02:25:56.616Z,24.03
2017-10-02T02:28:24.942Z,25.50
2017-10-02T02:30:54.068Z,26.60
2017-10-02T02:33:22.386Z,25.83
2017-10-02T02:35:50.715Z,24.23
2017-10-02T02:38:19.018Z,24.70
2017-10-02T02:40:47.336Z,22.33
2017-10-02T02:43:17.173Z,21.80
2017-10-02T02:45:46.274Z,22.90
2017-10-02T02:48:15.534Z,21.03
2017-10-02T02:50:43.862Z,21.40
2017-10-02T02:53:12.949Z,20.17
2017-10-02T02:55:42.024Z,20.43
2017-10-02T02:58:10.324Z,23.23
2017-10-02T03:00:39.418Z,22.47
2017-10-02T03:03:07.735Z,21.77
2017-10-02T03:05:36.073Z,22.40
2017-10-02T03:08:04.428Z,23.70
2017-10-02T03:10:32.720Z,24.37
2017-10-02T03:13:01.035Z,24.00
2017-10-02T03:15:30.140Z,23.10
2017-10-02T03:17:59.290Z,24.83
2017-10-02T03:20:27.667Z,19.37
2017-10-02T03:22:56.014Z,20.70
2017-10-02T03:25:25.078Z,19.90
2017-10-02T03:27:53.385Z,20.53
2017-10-02T03:30:22.477Z,14.03
2017-10-02T03:32:51.577Z,13.73
2017-10-02T03:35:20.629Z,16.33
2017-10-02T03:37:49.022Z,9.23
2017-10-02T03:40:17.341Z,13.50
2017-10-02T03:42:46.512Z,14.30
2017-10-02T03:45:14.808Z,11.00
2017-10-02T03:47:43.131Z,13.17
2017-10-02T03:50:11.430Z,14.70
2017-10-02T03:52:39.749Z,12.77
2017-10-02T03:55:08.120Z,11.87
2017-10-02T03:57:36.428Z,16.10
2017-10-02T04:00:05.541Z,20.23
2017-10-02T04:02:33.850Z,20.00
2017-10-02T04:05:02.142Z,16.17
2017-10-02T04:07:30.576Z,21.73
2017-10-02T04:09:59.695Z,28.80
2017-10-02T04:12:28.014Z,29.40
2017-10-02T04:14:56.395Z,28.47
2017-10-02T04:17:24.751Z,22.00
2017-10-02T04:19:53.095Z,28.13
2017-10-02T04:22:22.312Z,33.40
2017-10-02T04:24:51.393Z,27.30
2017-10-02T04:27:19.729Z,20.43
2017-10-02T04:29:48.067Z,30.33
2017-10-02T04:32:17.146Z,28.43
2017-10-02T04:34:45.443Z,25.00
2017-10-02T04:37:14.509Z,28.93
2017-10-02T04:39:42.829Z,30.70
2017-10-02T04:42:11.942Z,30.67
2017-10-02T04:44:40.266Z,27.23
2017-10-02T04:47:08.589Z,38.63
2017-10-02T04:49:37.705Z,25.63
2017-10-02T04:52:06.189Z,38.50
2017-10-02T04:54:34.518Z,24.57
2017-10-02T04:57:02.839Z,28.00
2017-10-02T04:59:31.903Z,32.17
2017-10-02T05:02:00.211Z,22.77
2017-10-02T05:04:29.269Z,34.70
2017-10-02T05:06:57.624Z,25.73
2017-10-02T05:09:25.936Z,31.00
2017-10-02T05:11:54.284Z,25.40
2017-10-02T05:14:23.336Z,24.80
2017-10-02T05:16:52.419Z,20.40
2017-10-02T05:19:20.731Z,34.23
2017-10-02T05:21:49.800Z,29.27
2017-10-02T05:24:18.241Z,20.87
2017-10-02T05:26:46.546Z,22.87
2017-10-02T05:29:14.946Z,21.93
2017-10-02T05:31:43.242Z,25.80
2017-10-02T05:34:11.585Z,19.60
2017-10-02T05:36:39.901Z,25.80
2017-10-02T05:39:08.217Z,27.90
2017-10-02T05:41:36.529Z,27.27
2017-10-02T05:44:04.843Z,34.20
2017-10-02T05:46:34.242Z,24.57
2017-10-02T05:49:02.535Z,26.07
2017-10-02T05:51:30.853Z,29.97
2017-10-02T05:53:59.247Z,30.47
2017-10-02T05:56:27.557Z,22.23
2017-10-02T05:58:55.869Z,30.13
2017-10-02T06:01:24.185Z,27.50
2017-10-02T06:03:52.555Z,38.00
2017-10-02T06:06:20.854Z,27.17
2017-10-02T06:08:49.213Z,28.23
2017-10-02T06:11:18.332Z,23.83
2017-10-02T06:13:47.540Z,31.67
2017-10-02T06:16:15.947Z,27.27
2017-10-02T06:18:44.279Z,27.20
2017-10-02T06:21:13.376Z,43.37
2017-10-02T06:23:42.488Z,28.07
2017-10-02T06:26:10.795Z,26.37
2017-10-02T06:28:45.250Z,28.63
2017-10-02T06:31:14.781Z,29.70
2017-10-02T06:33:43.844Z,28.47
2017-10-02T06:36:13.131Z,26.57
2017-10-02T06:38:42.249Z,30.93
2017-10-02T06:41:10.547Z,30.10
2017-10-02T06:43:38.879Z,27.70
2017-10-02T06:46:07.176Z,28.27
2017-10-02T06:48:35.513Z,26.03
2017-10-02T06:51:04.942Z,27.03
2017-10-02T06:53:33.465Z,34.63
2017-10-02T06:56:02.580Z,34.67
2017-10-02T06:58:30.910Z,30.50
2017-10-02T07:01:00.564Z,32.83
2017-10-02T07:03:29.673Z,37.13
2017-10-02T07:05:57.983Z,32.60
2017-10-02T07:08:26.353Z,26.13
2017-10-02T07:10:55.434Z,28.40
2017-10-02T07:13:23.738Z,34.57
2017-10-02T07:15:52.093Z,29.43
2017-10-02T07:18:20.419Z,32.60
2017-10-02T07:20:49.316Z,28.70
2017-10-02T07:23:18.548Z,36.83
2017-10-02T07:25:46.888Z,33.83
2017-10-02T07:28:17.588Z,37.53
2017-10-02T07:30:45.908Z,35.53
2017-10-02T07:33:16.624Z,32.77
2017-10-02T07:35:46.110Z,30.17
2017-10-02T07:38:15.913Z,27.80
2017-10-02T07:40:49.792Z,30.37
2017-10-02T07:43:19.078Z,30.53
2017-10-02T07:45:47.416Z,30.53
2017-10-02T07:48:15.727Z,32.93
2017-10-02T07:50:45.284Z,27.97
2017-10-02T07:53:14.252Z,22.63
2017-10-02T07:55:43.159Z,32.03
2017-10-02T07:58:12.960Z,33.70
2017-10-02T08:00:41.353Z,26.57
2017-10-02T08:03:09.801Z,33.70
2017-10-02T08:05:38.884Z,23.07
2017-10-02T08:08:08.446Z,39.37
2017-10-02T08:10:37.173Z,34.23
2017-10-02T08:13:06.050Z,36.57
2017-10-02T08:15:35.313Z,34.80
2017-10-02T08:18:04.813Z,31.30
2017-10-02T08:20:34.411Z,25.20
2017-10-02T08:23:02.789Z,31.73
2017-10-02T08:25:31.102Z,38.93
2017-10-02T08:27:59.520Z,31.50
2017-10-02T08:30:28.333Z,28.13
2017-10-02T08:32:57.465Z,30.80
2017-10-02T08:35:27.632Z,24.20
2017-10-02T08:38:01.694Z,27.63
2017-10-02T08:40:32.332Z,31.83
2017-10-02T08:43:01.019Z,23.20
2017-10-02T08:45:30.886Z,33.40
2017-10-02T08:48:01.810Z,28.10
2017-10-02T08:50:31.659Z,36.53
2017-10-02T08:53:01.195Z,30.43
2017-10-02T08:55:29.634Z,24.43
2017-10-02T08:58:00.321Z,30.53
2017-10-02T09:00:29.630Z,23.53
2017-10-02T09:03:04.588Z,31.00
2017-10-02T09:05:32.882Z,23.50
2017-10-02T09:08:01.190Z,35.17
2017-10-02T09:10:29.523Z,28.30
2017-10-02T09:12:57.842Z,27.57
2017-10-02T09:15:27.184Z,22.17
2017-10-02T09:17:56.256Z,25.13
2017-10-02T09:20:25.546Z,25.57
2017-10-02T09:22:53.903Z,23.17
2017-10-02T09:25:23.430Z,22.43
2017-10-02T09:27:52.836Z,25.60
2017-10-02T09:30:21.124Z,28.17
2017-10-02T09:32:49.514Z,25.90
2017-10-02T09:35:22.002Z,29.83
2017-10-02T09:37:50.389Z,28.43
2017-10-02T09:40:18.738Z,28.50
2017-10-02T09:42:47.025Z,24.03
2017-10-02T09:45:15.358Z,22.20
2017-10-02T09:47:44.418Z,33.50
2017-10-02T09:50:12.725Z,25.73
2017-10-02T09:52:41.851Z,28.87
2017-10-02T09:55:10.151Z,28.27
2017-10-02T09:57:38.442Z,23.60
2017-10-02T10:00:06.735Z,33.93
2017-10-02T10:02:35.084Z,30.60
2017-10-02T10:05:03.400Z,21.40
2017-10-02T10:07:31.719Z,22.03
2017-10-02T10:10:00.791Z,25.53
2017-10-02T10:12:29.091Z,28.93
2017-10-02T10:14:58.184Z,32.83
2017-10-02T10:17:26.491Z,25.73
2017-10-02T10:19:55.580Z,27.67
2017-10-02T10:22:23.972Z,26.40
2017-10-02T10:24:53.044Z,21.37
2017-10-02T10:27:21.398Z,30.23
2017-10-02T10:29:49.725Z,21.60
2017-10-02T10:32:18.837Z,22.30
2017-10-02T10:34:47.770Z,24.37
2017-10-02T10:37:16.093Z,30.57
2017-10-02T10:39:44.407Z,19.43
2017-10-02T10:42:12.720Z,25.50
2017-10-02T10:44:41.105Z,26.20
2017-10-02T10:47:09.405Z,26.13
2017-10-02T10:49:37.727Z,21.27
2017-10-02T10:52:06.030Z,34.33
2017-10-02T10:54:34.323Z,29.77
2017-10-02T10:57:02.627Z,27.80
2017-10-02T10:59:30.957Z,27.13
2017-10-02T11:01:59.354Z,23.10
2017-10-02T11:04:27.691Z,24.77
2017-10-02T11:06:56.028Z,30.87
2017-10-02T11:09:24.355Z,20.87
2017-10-02T11:11:53.465Z,31.57
2017-10-02T11:14:22.551Z,20.80
2017-10-02T11:16:50.845Z,31.33
2017-10-02T11:19:19.999Z,26.83
2017-10-02T11:21:48.299Z,23.90
2017-10-02T11:24:16.618Z,25.10
2017-10-02T11:26:44.932Z,24.93
2017-10-02T11:29:13.241Z,23.43
2017-10-02T11:31:41.557Z,27.63
2017-10-02T11:34:09.877Z,23.93
2017-10-02T11:36:38.185Z,20.97
2017-10-02T11:39:06.543Z,23.23
2017-10-02T11:41:34.887Z,24.77
2017-10-02T11:44:03.374Z,23.37
2017-10-02T11:46:31.687Z,26.03
2017-10-02T11:49:00.080Z,22.03
2017-10-02T11:51:28.383Z,25.97
2017-10-02T11:53:56.684Z,25.10
2017-10-02T11:56:25.763Z,21.80
2017-10-02T11:58:54.108Z,25.87
2017-10-02T12:01:22.422Z,27.80
2017-10-02T12:03:50.780Z,20.17
2017-10-02T12:06:19.090Z,23.80
2017-10-02T12:08:48.174Z,25.40
2017-10-02T12:11:16.467Z,24.00
2017-10-02T12:13:44.772Z,24.13
2017-10-02T12:16:13.888Z,27.50
2017-10-02T12:18:42.182Z,26.20
2017-10-02T12:21:10.483Z,23.73
2017-10-02T12:23:38.796Z,36.03
2017-10-02T12:26:07.859Z,23.30
2017-10-02T12:28:36.156Z,25.07
2017-10-02T12:31:04.492Z,24.63
2017-10-02T12:33:32.918Z,29.07
2017-10-02T12:36:01.221Z,24.70
2017-10-02T12:38:29.526Z,26.90
2017-10-02T12:40:57.828Z,28.03
2017-10-02T12:43:26.139Z,24.50
2017-10-02T12:45:54.505Z,27.70
2017-10-02T12:48:22.823Z,27.40
2017-10-02T12:50:51.115Z,23.33
2017-10-02T12:53:19.410Z,25.83
2017-10-02T12:55:48.479Z,28.73
2017-10-02T12:58:16.778Z,21.20
2017-10-02T13:00:45.126Z,26.43
2017-10-02T13:03:13.425Z,23.30
2017-10-02T13:05:41.713Z,22.17
2017-10-02T13:08:10.047Z,26.03
2017-10-02T13:10:38.349Z,20.50
2017-10-02T13:13:06.728Z,23.33
2017-10-02T13:15:35.028Z,30.80
2017-10-02T13:18:03.333Z,16.03
2017-10-02T13:20:32.408Z,19.00
2017-10-02T13:23:00.711Z,25.33
2017-10-02T13:25:29.769Z,23.57
2017-10-02T13:27:58.097Z,20.17
2017-10-02T13:30:27.158Z,20.43
2017-10-02T13:32:55.469Z,25.83
2017-10-02T13:35:24.582Z,15.77
2017-10-02T13:37:52.907Z,12.47
2017-10-02T13:40:21.219Z,20.40
2017-10-02T13:42:50.377Z,17.87
2017-10-02T13:45:18.681Z,18.07
2017-10-02T13:47:46.997Z,15.67
2017-10-02T13:50:16.071Z,18.70
2017-10-02T13:52:44.440Z,20.83
2017-10-02T13:55:12.753Z,23.20
2017-10-02T13:57:41.805Z,22.97
2017-10-02T14:00:10.104Z,19.57
2017-10-02T14:02:38.418Z,20.60
2017-10-02T14:05:07.513Z,16.93
2017-10-02T14:07:36.574Z,13.57
2017-10-02T14:10:04.889Z,15.03
2017-10-02T14:12:33.191Z,17.60
2017-10-02T14:15:01.525Z,18.80
2017-10-02T14:17:29.827Z,13.60
2017-10-02T14:19:58.905Z,20.93
2017-10-02T14:22:27.216Z,12.93
2017-10-02T14:24:56.299Z,14.70
2017-10-02T14:27:26.113Z,17.17
2017-10-02T14:29:54.401Z,13.50
2017-10-02T14:32:22.755Z,16.50
2017-10-02T14:34:51.072Z,15.73
2017-10-02T14:37:20.133Z,22.83
2017-10-02T14:39:48.451Z,15.37
2017-10-02T14:42:17.529Z,15.50
2017-10-02T14:44:45.823Z,15.03
2017-10-02T14:47:14.101Z,19.67
2017-10-02T14:49:42.403Z,21.20
2017-10-02T14:52:11.547Z,19.00
2017-10-02T14:54:39.864Z,24.87
2017-10-02T14:57:08.956Z,20.17
2017-10-02T14:59:37.280Z,21.23
2017-10-02T15:02:05.639Z,21.47
2017-10-02T15:04:34.712Z,19.00
2017-10-02T15:07:03.035Z,13.93
2017-10-02T15:09:31.332Z,16.43
2017-10-02T15:11:59.659Z,20.30
2017-10-02T15:14:27.992Z,16.73
2017-10-02T15:16:56.300Z,16.70
2017-10-02T15:19:24.624Z,19.27
2017-10-02T15:21:53.708Z,14.80
2017-10-02T15:24:22.047Z,21.23
2017-10-02T15:26:50.350Z,23.30
2017-10-02T15:29:18.680Z,15.10
2017-10-02T15:31:48.192Z,18.73
2017-10-02T15:34:17.001Z,17.40
2017-10-02T15:36:45.377Z,19.50
2017-10-02T15:39:14.336Z,14.73
2017-10-02T15:41:42.692Z,10.67
2017-10-02T15:44:10.987Z,13.80
2017-10-02T15:46:39.468Z,17.60
2017-10-02T15:49:07.830Z,19.13
2017-10-02T15:51:36.137Z,22.50
2017-10-02T15:54:07.798Z,14.70
2017-10-02T15:56:39.248Z,14.77
2017-10-02T15:59:08.964Z,12.30
2017-10-02T16:01:39.439Z,19.90
2017-10-02T16:04:12.142Z,18.20
2017-10-02T16:06:40.459Z,14.83
2017-10-02T16:09:08.819Z,22.17
2017-10-02T16:11:37.268Z,14.90
2017-10-02T16:14:05.593Z,20.30
2017-10-02T16:16:35.364Z,19.50
2017-10-02T16:19:03.709Z,23.20
2017-10-02T16:21:32.782Z,16.47
2017-10-02T16:24:01.078Z,21.40
2017-10-02T16:26:29.398Z,18.87
2017-10-02T16:28:57.706Z,19.70
2017-10-02T16:31:26.032Z,22.20
2017-10-02T16:33:55.138Z,21.83
2017-10-02T16:36:24.190Z,27.87
2017-10-02T16:38:52.493Z,17.80
2017-10-02T16:41:20.814Z,16.53
2017-10-02T16:43:49.110Z,18.40
2017-10-02T16:46:17.550Z,13.77
2017-10-02T16:48:45.876Z,16.50
2017-10-02T16:51:14.232Z,19.90
2017-10-02T16:53:43.320Z,18.37
2017-10-02T16:56:11.634Z,14.13
2017-10-02T16:58:39.938Z,17.70
2017-10-02T17:01:08.254Z,17.30
2017-10-02T17:03:36.538Z,17.03
2017-10-02T17:06:04.858Z,19.63
2017-10-02T17:08:33.164Z,15.53
2017-10-02T17:11:01.490Z,18.30
2017-10-02T17:13:30.579Z,15.83
2017-10-02T17:15:59.644Z,25.70
2017-10-02T17:18:27.993Z,21.50
2017-10-02T17:20:56.292Z,17.30
2017-10-02T17:23:24.666Z,20.47
2017-10-02T17:25:52.979Z,11.37
2017-10-02T17:28:21.274Z,12.23
2017-10-02T17:30:49.566Z,10.20
2017-10-02T17:33:17.886Z,13.43
2017-10-02T17:35:46.179Z,16.70
2017-10-02T17:38:14.482Z,13.77
2017-10-02T17:40:42.822Z,16.73
2017-10-02T17:43:11.120Z,11.60
2017-10-02T17:45:39.436Z,13.87
2017-10-02T17:48:07.820Z,11.40
2017-10-02T17:50:36.126Z,14.20
2017-10-02T17:53:05.215Z,19.40
2017-10-02T17:55:33.529Z,14.60
2017-10-02T17:58:01.835Z,12.13
2017-10-02T18:00:30.165Z,16.93
2017-10-02T18:02:59.320Z,12.00
2017-10-02T18:05:27.632Z,13.80
2017-10-02T18:07:55.928Z,13.60
2017-10-02T18:10:25.027Z,21.83
2017-10-02T18:12:54.116Z,15.87
2017-10-02T18:15:22.418Z,13.23
2017-10-02T18:17:51.478Z,14.57
2017-10-02T18:20:21.415Z,13.43
2017-10-02T18:22:50.584Z,11.10
2017-10-02T18:25:18.892Z,15.20
2017-10-02T18:27:47.260Z,21.90
2017-10-02T18:30:15.568Z,37.00
2017-10-02T18:32:44.654Z,26.33
2017-10-02T18:35:12.982Z,17.77
2017-10-02T18:37:41.291Z,25.80
2017-10-02T18:40:09.600Z,16.17
2017-10-02T18:42:37.911Z,17.53
2017-10-02T18:45:06.222Z,19.77
2017-10-02T18:47:34.575Z,12.80
2017-10-02T18:50:02.906Z,56.07
2017-10-02T18:52:31.201Z,28.77
2017-10-02T18:54:59.537Z,43.37
2017-10-02T18:57:29.625Z,57.67
2017-10-02T18:59:58.101Z,26.17
2017-10-02T19:02:27.177Z,37.57
2017-10-02T19:04:55.559Z,47.03
2017-10-02T19:07:23.905Z,18.53
2017-10-02T19:09:52.199Z,27.83
2017-10-02T19:12:20.500Z,62.50
2017-10-02T19:14:48.875Z,50.00
2017-10-02T19:17:17.310Z,23.10
2017-10-02T19:19:45.679Z,21.83
2017-10-02T19:22:14.784Z,29.27
2017-10-02T19:24:43.141Z,20.80
2017-10-02T19:27:11.498Z,46.60
2017-10-02T19:29:39.805Z,44.37
2017-10-02T19:32:08.175Z,36.90
2017-10-02T19:34:36.513Z,56.93
2017-10-02T19:37:04.850Z,20.57
2017-10-02T19:39:33.139Z,12.97
2017-10-02T19:42:01.444Z,20.50
2017-10-02T19:44:29.834Z,19.43
2017-10-02T19:46:58.164Z,33.33
2017-10-02T19:49:26.507Z,32.63
2017-10-02T19:51:54.815Z,82.20
2017-10-02T19:54:23.892Z,29.13
2017-10-02T19:56:52.304Z,32.23
2017-10-02T19:59:20.635Z,21.67
2017-10-02T20:01:49.708Z,24.80
2017-10-02T20:04:18.046Z,45.20
2017-10-02T20:06:46.383Z,23.00
2017-10-02T20:09:15.480Z,26.60
2017-10-02T20:11:44.564Z,22.83
2017-10-02T20:14:12.880Z,10.90
2017-10-02T20:16:41.182Z,11.90
2017-10-02T20:19:09.490Z,17.60
2017-10-02T20:21:37.827Z,15.30
2017-10-02T20:24:06.319Z,10.40
2017-10-02T20:26:34.639Z,15.53
2017-10-02T20:29:02.977Z,15.97
2017-10-02T20:31:31.287Z,18.80
2017-10-02T20:33:59.602Z,11.43
2017-10-02T20:36:27.919Z,13.10
2017-10-02T20:38:56.224Z,12.00
2017-10-02T20:41:24.568Z,18.30
2017-10-02T20:43:53.646Z,11.00
2017-10-02T20:46:21.958Z,9.60
2017-10-02T20:48:50.261Z,9.57
2017-10-02T20:51:18.567Z,13.07
2017-10-02T20:53:46.897Z,14.17
2017-10-02T20:56:15.188Z,11.90
2017-10-02T20:58:43.572Z,7.13
2017-10-02T21:01:11.873Z,11.50
2017-10-02T21:03:40.311Z,7.30
2017-10-02T21:06:09.391Z,8.40
2017-10-02T21:08:37.680Z,14.03
2017-10-02T21:11:05.973Z,7.60
2017-10-02T21:13:35.088Z,7.20
2017-10-02T21:16:03.477Z,9.60
2017-10-02T21:18:31.782Z,10.17
2017-10-02T21:21:00.079Z,9.73
2017-10-02T21:23:28.376Z,12.97
2017-10-02T21:25:56.672Z,12.13
2017-10-02T21:28:25.729Z,9.90
2017-10-02T21:30:54.043Z,12.23
2017-10-02T21:33:22.349Z,10.07
2017-10-02T21:35:51.421Z,5.50
2017-10-02T21:38:19.702Z,10.70
2017-10-02T21:40:48.826Z,11.63
2017-10-02T21:43:17.946Z,19.10
2017-10-02T21:45:46.349Z,12.13
2017-10-02T21:48:14.643Z,13.63
2017-10-02T21:50:42.977Z,8.73
2017-10-02T21:53:11.280Z,9.53
2017-10-02T21:55:39.649Z,9.70
2017-10-02T21:58:07.980Z,14.20
2017-10-02T22:00:36.273Z,8.53
2017-10-02T22:03:04.639Z,14.37
2017-10-02T22:05:32.958Z,9.00
2017-10-02T22:08:01.341Z,11.60
2017-10-02T22:10:29.637Z,6.53
2017-10-02T22:12:57.960Z,9.90
2017-10-02T22:15:26.266Z,6.80
2017-10-02T22:17:54.603Z,12.53
2017-10-02T22:20:22.993Z,11.23
2017-10-02T22:22:51.301Z,8.60
2017-10-02T22:25:19.623Z,7.67
2017-10-02T22:27:47.911Z,12.70
2017-10-02T22:30:16.220Z,8.07
2017-10-02T22:32:44.522Z,6.20
2017-10-02T22:35:12.814Z,7.57
2017-10-02T22:37:41.875Z,9.67
2017-10-02T22:40:10.267Z,9.10
2017-10-02T22:42:38.640Z,8.30
2017-10-02T22:45:07.077Z,13.13
2017-10-02T22:47:36.149Z,7.67
2017-10-02T22:50:04.457Z,10.97
2017-10-02T22:52:32.770Z,8.33
2017-10-02T22:55:01.077Z,10.37
2017-10-02T22:57:32.595Z,11.67
2017-10-02T23:00:00.902Z,12.07
2017-10-02T23:02:29.198Z,8.67
2017-10-02T23:04:57.536Z,11.00
2017-10-02T23:07:25.839Z,12.80
2017-10-02T23:09:56.775Z,12.50
2017-10-02T23:12:25.078Z,11.13
2017-10-02T23:14:53.380Z,11.60
2017-10-02T23:17:21.677Z,11.00
2017-10-02T23:19:50.759Z,11.57
2017-10-02T23:22:19.896Z,12.10
2017-10-02T23:24:48.184Z,13.00
2017-10-02T23:27:16.485Z,15.83
2017-10-02T23:29:44.810Z,15.20
2017-10-02T23:32:14.046Z,13.70
2017-10-02T23:34:42.346Z,11.87
2017-10-02T23:37:10.652Z,15.50
2017-10-02T23:39:38.949Z,9.43
2017-10-02T23:42:07.473Z,11.13
2017-10-02T23:44:35.789Z,8.20
2017-10-02T23:47:04.100Z,17.87
2017-10-02T23:49:33.187Z,14.97
2017-10-02T23:52:01.486Z,7.77
2017-10-02T23:54:30.590Z,18.57
2017-10-02T23:56:59.651Z,16.33
2017-10-02T23:59:27.950Z,12.07
